Terminal Aerodrome Forecast
Issued by NWS Duluth, MN

Home | Current Version | Previous Version | Text Only | Print | Product List | Glossary On
Versions: 1 2 3 4 5 6 7 8 9 10 11 12 13 14 15 16 17
499
FTUS43 KDLH 231720
TAFINL
TAF
KINL 231720Z 2318/2418 33009G17KT P6SM -SHRA BKN015 OVC025
     FM232300 33011G19KT P6SM VCSH BKN025
     FM240200 34011G19KT P6SM OVC025
     FM240600 35013G21KT P6SM BKN035
     FM241200 34014G22KT P6SM SCT035
     FM241500 34015G24KT P6SM FEW150=

USA.gov is the U.S. government's official web portal to all federal, state and local government web resources and services.